sensor_id;sensor_type;location;lat;lon;timestamp;P1;durP1;ratioP1;P2;durP2;ratioP2
62056;SDS011;48016;50.284;18.860;2023-03-01T00:01:13;121.10;;;52.10;;
62056;SDS011;48016;50.284;18.860;2023-03-01T00:03:42;116.60;;;52.00;;
62056;SDS011;48016;50.284;18.860;2023-03-01T00:06:09;106.30;;;46.80;;
62056;SDS011;48016;50.284;18.860;2023-03-01T00:08:36;115.50;;;49.70;;
62056;SDS011;48016;50.284;18.860;2023-03-01T00:13:39;114.70;;;48.80;;
62056;SDS011;48016;50.284;18.860;2023-03-01T00:18:34;97.20;;;44.30;;
62056;SDS011;48016;50.284;18.860;2023-03-01T00:21:01;92.60;;;39.60;;
62056;SDS011;48016;50.284;18.860;2023-03-01T00:23:28;83.10;;;37.10;;
62056;SDS011;48016;50.284;18.860;2023-03-01T00:25:54;87.00;;;38.40;;
62056;SDS011;48016;50.284;18.860;2023-03-01T00:28:21;79.50;;;34.50;;
62056;SDS011;48016;50.284;18.860;2023-03-01T00:30:48;67.70;;;31.20;;
62056;SDS011;48016;50.284;18.860;2023-03-01T00:33:15;87.60;;;36.20;;
62056;SDS011;48016;50.284;18.860;2023-03-01T00:35:41;78.00;;;32.90;;
62056;SDS011;48016;50.284;18.860;2023-03-01T00:38:08;73.90;;;30.30;;
62056;SDS011;48016;50.284;18.860;2023-03-01T00:40:35;82.40;;;33.90;;
62056;SDS011;48016;50.284;18.860;2023-03-01T00:43:02;76.40;;;34.90;;
62056;SDS011;48016;50.284;18.860;2023-03-01T00:45:29;93.30;;;39.20;;
62056;SDS011;48016;50.284;18.860;2023-03-01T00:50:23;85.80;;;39.40;;
62056;SDS011;48016;50.284;18.860;2023-03-01T00:52:54;85.50;;;35.60;;
62056;SDS011;48016;50.284;18.860;2023-03-01T00:55:21;81.10;;;34.70;;
62056;SDS011;48016;50.284;18.860;2023-03-01T00:57:48;82.70;;;37.10;;
62056;SDS011;48016;50.284;18.860;2023-03-01T01:00:15;86.30;;;36.60;;
62056;SDS011;48016;50.284;18.860;2023-03-01T01:02:43;79.70;;;35.30;;
62056;SDS011;48016;50.284;18.860;2023-03-01T01:05:10;70.90;;;30.70;;
62056;SDS011;48016;50.284;18.860;2023-03-01T01:07:37;77.20;;;35.20;;
62056;SDS011;48016;50.284;18.860;2023-03-01T01:10:04;86.20;;;33.90;;
62056;SDS011;48016;50.284;18.860;2023-03-01T01:12:32;76.80;;;34.00;;
62056;SDS011;48016;50.284;18.860;2023-03-01T01:14:59;89.30;;;38.70;;
62056;SDS011;48016;50.284;18.860;2023-03-01T01:17:25;85.00;;;37.40;;
62056;SDS011;48016;50.284;18.860;2023-03-01T01:19:52;79.30;;;33.30;;
62056;SDS011;48016;50.284;18.860;2023-03-01T01:22:18;76.40;;;36.00;;
62056;SDS011;48016;50.284;18.860;2023-03-01T01:24:45;83.20;;;34.50;;
62056;SDS011;48016;50.284;18.860;2023-03-01T01:27:12;79.90;;;34.30;;
62056;SDS011;48016;50.284;18.860;2023-03-01T01:29:38;76.80;;;31.90;;
62056;SDS011;48016;50.284;18.860;2023-03-01T01:32:05;73.20;;;31.60;;
62056;SDS011;48016;50.284;18.860;2023-03-01T01:34:31;69.90;;;30.60;;
62056;SDS011;48016;50.284;18.860;2023-03-01T01:36:58;78.80;;;33.40;;
62056;SDS011;48016;50.284;18.860;2023-03-01T01:39:28;76.90;;;33.30;;
62056;SDS011;48016;50.284;18.860;2023-03-01T01:41:55;83.60;;;36.30;;
62056;SDS011;48016;50.284;18.860;2023-03-01T01:44:25;68.50;;;31.60;;
62056;SDS011;48016;50.284;18.860;2023-03-01T01:46:57;82.40;;;36.30;;
62056;SDS011;48016;50.284;18.860;2023-03-01T01:49:32;79.80;;;34.30;;
62056;SDS011;48016;50.284;18.860;2023-03-01T01:57:34;69.40;;;29.20;;
62056;SDS011;48016;50.284;18.860;2023-03-01T02:00:06;81.00;;;34.90;;
62056;SDS011;48016;50.284;18.860;2023-03-01T02:02:36;63.30;;;27.30;;
62056;SDS011;48016;50.284;18.860;2023-03-01T02:05:13;72.50;;;33.30;;
62056;SDS011;48016;50.284;18.860;2023-03-01T02:07:46;73.90;;;32.90;;
62056;SDS011;48016;50.284;18.860;2023-03-01T02:10:14;64.40;;;29.90;;
62056;SDS011;48016;50.284;18.860;2023-03-01T02:12:41;65.40;;;27.80;;
62056;SDS011;48016;50.284;18.860;2023-03-01T02:15:08;66.80;;;27.90;;
62056;SDS011;48016;50.284;18.860;2023-03-01T02:17:35;64.50;;;29.40;;
62056;SDS011;48016;50.284;18.860;2023-03-01T02:22:52;64.80;;;28.10;;
62056;SDS011;48016;50.284;18.860;2023-03-01T02:30:42;68.90;;;30.70;;
62056;SDS011;48016;50.284;18.860;2023-03-01T02:33:29;64.00;;;28.50;;
62056;SDS011;48016;50.284;18.860;2023-03-01T02:36:00;61.00;;;26.70;;
62056;SDS011;48016;50.284;18.860;2023-03-01T02:38:28;60.90;;;28.90;;
62056;SDS011;48016;50.284;18.860;2023-03-01T02:40:55;73.60;;;34.50;;
62056;SDS011;48016;50.284;18.860;2023-03-01T02:43:24;64.80;;;29.60;;
62056;SDS011;48016;50.284;18.860;2023-03-01T02:45:57;60.60;;;27.20;;
62056;SDS011;48016;50.284;18.860;2023-03-01T02:48:25;57.70;;;27.20;;
62056;SDS011;48016;50.284;18.860;2023-03-01T02:56:08;62.30;;;29.30;;
62056;SDS011;48016;50.284;18.860;2023-03-01T02:58:40;61.90;;;28.90;;
62056;SDS011;48016;50.284;18.860;2023-03-01T03:01:12;65.20;;;29.20;;
62056;SDS011;48016;50.284;18.860;2023-03-01T03:03:41;67.00;;;29.00;;
62056;SDS011;48016;50.284;18.860;2023-03-01T03:06:08;58.80;;;27.10;;
62056;SDS011;48016;50.284;18.860;2023-03-01T03:08:35;50.70;;;22.20;;
62056;SDS011;48016;50.284;18.860;2023-03-01T03:11:02;57.50;;;25.80;;
62056;SDS011;48016;50.284;18.860;2023-03-01T03:13:29;58.60;;;25.30;;
62056;SDS011;48016;50.284;18.860;2023-03-01T03:15:55;52.50;;;23.90;;
62056;SDS011;48016;50.284;18.860;2023-03-01T03:18:22;43.70;;;21.00;;
62056;SDS011;48016;50.284;18.860;2023-03-01T03:20:52;52.10;;;24.10;;
62056;SDS011;48016;50.284;18.860;2023-03-01T03:23:20;44.60;;;20.80;;
62056;SDS011;48016;50.284;18.860;2023-03-01T03:25:48;47.70;;;23.60;;
62056;SDS011;48016;50.284;18.860;2023-03-01T03:28:16;52.70;;;24.80;;
62056;SDS011;48016;50.284;18.860;2023-03-01T03:33:11;47.60;;;21.80;;
62056;SDS011;48016;50.284;18.860;2023-03-01T03:35:39;49.60;;;22.30;;
62056;SDS011;48016;50.284;18.860;2023-03-01T03:38:07;51.30;;;22.00;;
62056;SDS011;48016;50.284;18.860;2023-03-01T03:41:01;56.80;;;21.60;;
62056;SDS011;48016;50.284;18.860;2023-03-01T03:43:30;56.20;;;22.20;;
62056;SDS011;48016;50.284;18.860;2023-03-01T03:45:58;49.60;;;23.70;;
62056;SDS011;48016;50.284;18.860;2023-03-01T03:48:25;54.80;;;26.20;;
62056;SDS011;48016;50.284;18.860;2023-03-01T03:50:53;53.80;;;26.10;;
62056;SDS011;48016;50.284;18.860;2023-03-01T03:53:22;47.10;;;22.10;;
62056;SDS011;48016;50.284;18.860;2023-03-01T03:55:50;54.80;;;24.60;;
62056;SDS011;48016;50.284;18.860;2023-03-01T03:58:18;59.60;;;29.30;;
62056;SDS011;48016;50.284;18.860;2023-03-01T04:00:51;61.80;;;27.30;;
62056;SDS011;48016;50.284;18.860;2023-03-01T04:03:19;58.50;;;27.50;;
62056;SDS011;48016;50.284;18.860;2023-03-01T04:05:46;48.90;;;23.40;;
62056;SDS011;48016;50.284;18.860;2023-03-01T04:08:13;53.00;;;24.80;;
62056;SDS011;48016;50.284;18.860;2023-03-01T04:10:41;54.80;;;25.80;;
62056;SDS011;48016;50.284;18.860;2023-03-01T04:13:10;54.00;;;22.90;;
62056;SDS011;48016;50.284;18.860;2023-03-01T04:15:39;61.70;;;27.90;;
62056;SDS011;48016;50.284;18.860;2023-03-01T04:18:06;65.50;;;28.40;;
62056;SDS011;48016;50.284;18.860;2023-03-01T04:20:34;62.90;;;26.60;;
62056;SDS011;48016;50.284;18.860;2023-03-01T04:23:04;57.40;;;24.30;;
62056;SDS011;48016;50.284;18.860;2023-03-01T04:25:44;61.00;;;26.80;;
62056;SDS011;48016;50.284;18.860;2023-03-01T04:28:27;56.20;;;23.90;;
62056;SDS011;48016;50.284;18.860;2023-03-01T04:30:56;59.40;;;26.40;;
62056;SDS011;48016;50.284;18.860;2023-03-01T04:33:24;56.20;;;26.80;;
62056;SDS011;48016;50.284;18.860;2023-03-01T04:35:51;45.30;;;20.90;;
62056;SDS011;48016;50.284;18.860;2023-03-01T04:38:18;50.50;;;24.80;;
62056;SDS011;48016;50.284;18.860;2023-03-01T04:40:47;49.10;;;23.30;;
62056;SDS011;48016;50.284;18.860;2023-03-01T04:43:14;62.80;;;26.90;;
62056;SDS011;48016;50.284;18.860;2023-03-01T04:45:41;54.00;;;27.80;;
62056;SDS011;48016;50.284;18.860;2023-03-01T04:48:08;60.80;;;28.90;;
62056;SDS011;48016;50.284;18.860;2023-03-01T04:50:35;59.10;;;27.80;;
62056;SDS011;48016;50.284;18.860;2023-03-01T04:53:02;54.50;;;27.80;;
62056;SDS011;48016;50.284;18.860;2023-03-01T04:55:29;53.00;;;24.90;;
62056;SDS011;48016;50.284;18.860;2023-03-01T04:57:56;55.80;;;27.50;;
62056;SDS011;48016;50.284;18.860;2023-03-01T05:00:23;51.90;;;24.60;;
62056;SDS011;48016;50.284;18.860;2023-03-01T05:02:51;56.70;;;27.80;;
62056;SDS011;48016;50.284;18.860;2023-03-01T05:05:25;63.20;;;29.00;;
62056;SDS011;48016;50.284;18.860;2023-03-01T05:07:58;59.60;;;29.10;;
62056;SDS011;48016;50.284;18.860;2023-03-01T05:10:27;71.40;;;30.70;;
62056;SDS011;48016;50.284;18.860;2023-03-01T05:12:59;69.10;;;31.00;;
62056;SDS011;48016;50.284;18.860;2023-03-01T05:15:27;69.60;;;32.00;;
62056;SDS011;48016;50.284;18.860;2023-03-01T05:17:56;79.20;;;33.60;;
62056;SDS011;48016;50.284;18.860;2023-03-01T05:20:26;71.00;;;31.40;;
62056;SDS011;48016;50.284;18.860;2023-03-01T05:22:54;74.90;;;32.60;;
62056;SDS011;48016;50.284;18.860;2023-03-01T05:25:23;60.70;;;26.90;;
62056;SDS011;48016;50.284;18.860;2023-03-01T05:27:50;75.60;;;31.60;;
62056;SDS011;48016;50.284;18.860;2023-03-01T05:30:17;76.90;;;32.30;;
62056;SDS011;48016;50.284;18.860;2023-03-01T05:32:45;87.50;;;34.70;;
62056;SDS011;48016;50.284;18.860;2023-03-01T05:35:15;82.80;;;34.60;;
62056;SDS011;48016;50.284;18.860;2023-03-01T05:37:43;79.40;;;33.50;;
62056;SDS011;48016;50.284;18.860;2023-03-01T05:40:12;94.30;;;36.30;;
62056;SDS011;48016;50.284;18.860;2023-03-01T05:42:48;94.00;;;36.50;;
62056;SDS011;48016;50.284;18.860;2023-03-01T05:45:20;79.50;;;33.70;;
62056;SDS011;48016;50.284;18.860;2023-03-01T05:47:48;69.80;;;30.60;;
62056;SDS011;48016;50.284;18.860;2023-03-01T05:52:47;63.20;;;30.30;;
62056;SDS011;48016;50.284;18.860;2023-03-01T05:55:15;66.30;;;31.70;;
62056;SDS011;48016;50.284;18.860;2023-03-01T05:57:47;72.70;;;32.30;;
62056;SDS011;48016;50.284;18.860;2023-03-01T06:00:14;82.60;;;35.80;;
62056;SDS011;48016;50.284;18.860;2023-03-01T06:02:43;70.30;;;31.20;;
62056;SDS011;48016;50.284;18.860;2023-03-01T06:05:10;81.70;;;35.60;;
62056;SDS011;48016;50.284;18.860;2023-03-01T06:07:38;94.70;;;41.30;;
62056;SDS011;48016;50.284;18.860;2023-03-01T06:10:05;93.10;;;40.80;;
62056;SDS011;48016;50.284;18.860;2023-03-01T06:12:34;89.50;;;42.80;;
62056;SDS011;48016;50.284;18.860;2023-03-01T06:15:02;79.80;;;38.00;;
62056;SDS011;48016;50.284;18.860;2023-03-01T06:17:30;80.80;;;38.30;;
62056;SDS011;48016;50.284;18.860;2023-03-01T06:19:58;77.60;;;37.80;;
62056;SDS011;48016;50.284;18.860;2023-03-01T06:22:25;83.80;;;39.90;;
62056;SDS011;48016;50.284;18.860;2023-03-01T06:24:51;90.40;;;41.40;;
62056;SDS011;48016;50.284;18.860;2023-03-01T06:27:18;94.60;;;42.20;;
62056;SDS011;48016;50.284;18.860;2023-03-01T06:29:45;72.00;;;33.90;;
62056;SDS011;48016;50.284;18.860;2023-03-01T06:32:11;80.40;;;38.20;;
62056;SDS011;48016;50.284;18.860;2023-03-01T06:34:38;72.50;;;34.70;;
62056;SDS011;48016;50.284;18.860;2023-03-01T06:37:06;77.30;;;36.80;;
62056;SDS011;48016;50.284;18.860;2023-03-01T06:39:32;85.50;;;39.90;;
62056;SDS011;48016;50.284;18.860;2023-03-01T06:41:59;81.30;;;37.70;;
62056;SDS011;48016;50.284;18.860;2023-03-01T06:44:26;88.30;;;41.50;;
62056;SDS011;48016;50.284;18.860;2023-03-01T06:46:53;80.90;;;41.20;;
62056;SDS011;48016;50.284;18.860;2023-03-01T06:49:20;81.80;;;38.20;;
62056;SDS011;48016;50.284;18.860;2023-03-01T06:51:47;75.80;;;36.30;;
62056;SDS011;48016;50.284;18.860;2023-03-01T06:54:13;75.10;;;36.20;;
62056;SDS011;48016;50.284;18.860;2023-03-01T06:56:40;76.50;;;36.30;;
62056;SDS011;48016;50.284;18.860;2023-03-01T06:59:07;72.80;;;35.70;;
62056;SDS011;48016;50.284;18.860;2023-03-01T07:01:33;73.90;;;37.90;;
62056;SDS011;48016;50.284;18.860;2023-03-01T07:04:00;71.40;;;36.60;;
62056;SDS011;48016;50.284;18.860;2023-03-01T07:06:27;78.40;;;37.30;;
62056;SDS011;48016;50.284;18.860;2023-03-01T07:08:53;80.10;;;40.50;;
62056;SDS011;48016;50.284;18.860;2023-03-01T07:11:20;67.80;;;35.20;;
62056;SDS011;48016;50.284;18.860;2023-03-01T07:13:46;69.00;;;37.50;;
62056;SDS011;48016;50.284;18.860;2023-03-01T07:16:13;78.20;;;39.50;;
62056;SDS011;48016;50.284;18.860;2023-03-01T07:18:41;73.20;;;38.50;;
62056;SDS011;48016;50.284;18.860;2023-03-01T07:21:08;72.60;;;37.80;;
62056;SDS011;48016;50.284;18.860;2023-03-01T07:23:37;62.70;;;33.80;;
62056;SDS011;48016;50.284;18.860;2023-03-01T07:26:03;67.00;;;35.00;;
62056;SDS011;48016;50.284;18.860;2023-03-01T07:28:31;58.40;;;34.10;;
62056;SDS011;48016;50.284;18.860;2023-03-01T07:31:02;69.90;;;37.30;;
62056;SDS011;48016;50.284;18.860;2023-03-01T07:33:29;76.80;;;40.20;;
62056;SDS011;48016;50.284;18.860;2023-03-01T07:35:57;51.00;;;29.40;;
62056;SDS011;48016;50.284;18.860;2023-03-01T07:38:24;69.20;;;36.80;;
62056;SDS011;48016;50.284;18.860;2023-03-01T07:40:52;89.40;;;41.50;;
62056;SDS011;48016;50.284;18.860;2023-03-01T07:43:18;98.50;;;49.50;;
62056;SDS011;48016;50.284;18.860;2023-03-01T07:45:46;168.10;;;83.80;;
62056;SDS011;48016;50.284;18.860;2023-03-01T07:48:13;166.80;;;87.00;;
62056;SDS011;48016;50.284;18.860;2023-03-01T07:50:39;162.80;;;83.80;;
62056;SDS011;48016;50.284;18.860;2023-03-01T07:53:06;154.40;;;81.00;;
62056;SDS011;48016;50.284;18.860;2023-03-01T07:55:33;111.20;;;60.30;;
62056;SDS011;48016;50.284;18.860;2023-03-01T07:57:59;125.90;;;63.70;;
62056;SDS011;48016;50.284;18.860;2023-03-01T08:00:26;110.00;;;56.80;;
62056;SDS011;48016;50.284;18.860;2023-03-01T08:02:52;117.00;;;61.10;;
62056;SDS011;48016;50.284;18.860;2023-03-01T08:05:19;106.50;;;57.40;;
62056;SDS011;48016;50.284;18.860;2023-03-01T08:07:48;107.00;;;54.30;;
62056;SDS011;48016;50.284;18.860;2023-03-01T08:10:14;98.20;;;52.70;;
62056;SDS011;48016;50.284;18.860;2023-03-01T08:12:41;88.80;;;47.40;;
62056;SDS011;48016;50.284;18.860;2023-03-01T08:15:08;77.40;;;41.40;;
62056;SDS011;48016;50.284;18.860;2023-03-01T08:17:35;70.10;;;37.70;;
62056;SDS011;48016;50.284;18.860;2023-03-01T08:20:02;80.60;;;40.30;;
62056;SDS011;48016;50.284;18.860;2023-03-01T08:22:30;66.00;;;36.70;;
62056;SDS011;48016;50.284;18.860;2023-03-01T08:24:57;70.30;;;36.80;;
62056;SDS011;48016;50.284;18.860;2023-03-01T08:27:23;68.20;;;37.80;;
62056;SDS011;48016;50.284;18.860;2023-03-01T08:29:50;60.70;;;33.20;;
62056;SDS011;48016;50.284;18.860;2023-03-01T08:32:17;56.10;;;31.70;;
62056;SDS011;48016;50.284;18.860;2023-03-01T08:34:45;58.00;;;32.70;;
62056;SDS011;48016;50.284;18.860;2023-03-01T08:37:12;63.20;;;34.20;;
62056;SDS011;48016;50.284;18.860;2023-03-01T08:39:39;70.60;;;34.80;;
62056;SDS011;48016;50.284;18.860;2023-03-01T08:42:06;63.40;;;35.80;;
62056;SDS011;48016;50.284;18.860;2023-03-01T08:44:33;40.10;;;22.40;;
62056;SDS011;48016;50.284;18.860;2023-03-01T08:47:01;39.30;;;21.90;;
62056;SDS011;48016;50.284;18.860;2023-03-01T08:49:28;35.10;;;21.80;;
62056;SDS011;48016;50.284;18.860;2023-03-01T08:51:55;39.00;;;22.00;;
62056;SDS011;48016;50.284;18.860;2023-03-01T08:54:21;37.50;;;20.50;;
62056;SDS011;48016;50.284;18.860;2023-03-01T08:56:48;38.90;;;20.00;;
62056;SDS011;48016;50.284;18.860;2023-03-01T08:59:16;37.10;;;21.00;;
62056;SDS011;48016;50.284;18.860;2023-03-01T09:01:43;43.10;;;23.20;;
62056;SDS011;48016;50.284;18.860;2023-03-01T09:04:10;43.00;;;23.10;;
62056;SDS011;48016;50.284;18.860;2023-03-01T09:06:38;49.40;;;25.80;;
62056;SDS011;48016;50.284;18.860;2023-03-01T09:09:05;45.30;;;25.00;;
62056;SDS011;48016;50.284;18.860;2023-03-01T09:11:32;48.10;;;25.40;;
62056;SDS011;48016;50.284;18.860;2023-03-01T09:13:59;40.20;;;22.70;;
62056;SDS011;48016;50.284;18.860;2023-03-01T09:16:26;46.30;;;25.40;;
62056;SDS011;48016;50.284;18.860;2023-03-01T09:18:53;44.20;;;24.50;;
62056;SDS011;48016;50.284;18.860;2023-03-01T09:21:21;39.60;;;20.40;;
62056;SDS011;48016;50.284;18.860;2023-03-01T09:23:49;40.80;;;22.20;;
62056;SDS011;48016;50.284;18.860;2023-03-01T09:26:19;35.20;;;20.90;;
62056;SDS011;48016;50.284;18.860;2023-03-01T09:28:48;38.50;;;21.60;;
62056;SDS011;48016;50.284;18.860;2023-03-01T09:31:17;36.50;;;18.70;;
62056;SDS011;48016;50.284;18.860;2023-03-01T09:33:46;34.60;;;20.90;;
62056;SDS011;48016;50.284;18.860;2023-03-01T09:36:16;36.20;;;17.80;;
62056;SDS011;48016;50.284;18.860;2023-03-01T09:38:44;29.50;;;17.20;;
62056;SDS011;48016;50.284;18.860;2023-03-01T09:43:48;28.90;;;16.00;;
62056;SDS011;48016;50.284;18.860;2023-03-01T09:46:22;32.20;;;17.20;;
62056;SDS011;48016;50.284;18.860;2023-03-01T09:48:52;29.00;;;16.50;;
62056;SDS011;48016;50.284;18.860;2023-03-01T09:51:26;29.60;;;16.20;;
62056;SDS011;48016;50.284;18.860;2023-03-01T09:53:56;34.30;;;18.70;;
62056;SDS011;48016;50.284;18.860;2023-03-01T09:56:47;27.10;;;14.90;;
62056;SDS011;48016;50.284;18.860;2023-03-01T10:04:44;28.70;;;15.70;;
62056;SDS011;48016;50.284;18.860;2023-03-01T10:09:49;28.00;;;15.50;;
62056;SDS011;48016;50.284;18.860;2023-03-01T10:12:17;32.90;;;18.30;;
62056;SDS011;48016;50.284;18.860;2023-03-01T10:17:48;32.70;;;16.40;;
62056;SDS011;48016;50.284;18.860;2023-03-01T10:22:49;29.90;;;16.30;;
62056;SDS011;48016;50.284;18.860;2023-03-01T10:25:34;27.30;;;16.00;;
62056;SDS011;48016;50.284;18.860;2023-03-01T10:28:18;30.30;;;17.60;;
62056;SDS011;48016;50.284;18.860;2023-03-01T10:30:52;40.40;;;19.00;;
62056;SDS011;48016;50.284;18.860;2023-03-01T10:33:23;33.80;;;19.50;;
62056;SDS011;48016;50.284;18.860;2023-03-01T10:35:55;40.30;;;20.70;;
62056;SDS011;48016;50.284;18.860;2023-03-01T10:38:22;36.40;;;16.90;;
62056;SDS011;48016;50.284;18.860;2023-03-01T10:40:59;27.90;;;15.50;;
62056;SDS011;48016;50.284;18.860;2023-03-01T10:46:29;32.80;;;16.50;;
62056;SDS011;48016;50.284;18.860;2023-03-01T10:49:17;42.40;;;21.10;;
62056;SDS011;48016;50.284;18.860;2023-03-01T10:51:46;33.80;;;17.50;;
62056;SDS011;48016;50.284;18.860;2023-03-01T10:56:52;34.90;;;17.40;;
62056;SDS011;48016;50.284;18.860;2023-03-01T10:59:22;33.50;;;18.50;;
62056;SDS011;48016;50.284;18.860;2023-03-01T11:02:01;34.70;;;19.00;;
62056;SDS011;48016;50.284;18.860;2023-03-01T11:04:28;37.50;;;18.30;;
62056;SDS011;48016;50.284;18.860;2023-03-01T11:06:58;38.70;;;19.40;;
62056;SDS011;48016;50.284;18.860;2023-03-01T11:09:26;46.30;;;20.40;;
62056;SDS011;48016;50.284;18.860;2023-03-01T11:14:38;32.50;;;16.70;;
62056;SDS011;48016;50.284;18.860;2023-03-01T11:19:41;28.50;;;16.30;;
62056;SDS011;48016;50.284;18.860;2023-03-01T11:22:12;30.00;;;16.90;;
62056;SDS011;48016;50.284;18.860;2023-03-01T11:24:41;31.30;;;17.40;;
62056;SDS011;48016;50.284;18.860;2023-03-01T11:27:16;30.60;;;17.60;;
62056;SDS011;48016;50.284;18.860;2023-03-01T11:29:59;28.10;;;15.80;;
62056;SDS011;48016;50.284;18.860;2023-03-01T11:32:28;31.10;;;16.00;;
62056;SDS011;48016;50.284;18.860;2023-03-01T11:35:05;30.80;;;16.10;;
62056;SDS011;48016;50.284;18.860;2023-03-01T11:38:22;27.70;;;14.30;;
62056;SDS011;48016;50.284;18.860;2023-03-01T11:57:04;25.80;;;13.00;;
62056;SDS011;48016;50.284;18.860;2023-03-01T12:08:08;23.90;;;13.10;;
62056;SDS011;48016;50.284;18.860;2023-03-01T12:10:59;22.30;;;12.90;;
62056;SDS011;48016;50.284;18.860;2023-03-01T12:14:02;23.60;;;12.90;;
62056;SDS011;48016;50.284;18.860;2023-03-01T12:19:33;31.20;;;14.30;;
62056;SDS011;48016;50.284;18.860;2023-03-01T12:33:32;23.80;;;11.30;;
62056;SDS011;48016;50.284;18.860;2023-03-01T12:36:07;18.40;;;10.30;;
62056;SDS011;48016;50.284;18.860;2023-03-01T12:49:10;20.80;;;11.30;;
62056;SDS011;48016;50.284;18.860;2023-03-01T12:51:40;21.50;;;12.40;;
62056;SDS011;48016;50.284;18.860;2023-03-01T12:54:22;19.30;;;11.50;;
62056;SDS011;48016;50.284;18.860;2023-03-01T12:56:55;20.90;;;12.70;;
62056;SDS011;48016;50.284;18.860;2023-03-01T12:59:29;23.40;;;12.50;;
62056;SDS011;48016;50.284;18.860;2023-03-01T13:10:50;24.00;;;13.00;;
62056;SDS011;48016;50.284;18.860;2023-03-01T13:13:27;25.20;;;13.00;;
62056;SDS011;48016;50.284;18.860;2023-03-01T13:15:55;25.60;;;13.40;;
62056;SDS011;48016;50.284;18.860;2023-03-01T13:20:50;25.80;;;11.80;;
62056;SDS011;48016;50.284;18.860;2023-03-01T13:31:01;23.00;;;12.20;;
62056;SDS011;48016;50.284;18.860;2023-03-01T13:35:57;24.70;;;13.70;;
62056;SDS011;48016;50.284;18.860;2023-03-01T13:46:46;22.60;;;11.80;;
62056;SDS011;48016;50.284;18.860;2023-03-01T13:49:14;20.10;;;10.20;;
62056;SDS011;48016;50.284;18.860;2023-03-01T13:51:47;17.90;;;11.20;;
62056;SDS011;48016;50.284;18.860;2023-03-01T13:54:16;20.30;;;9.70;;
62056;SDS011;48016;50.284;18.860;2023-03-01T13:56:51;17.50;;;9.60;;
62056;SDS011;48016;50.284;18.860;2023-03-01T13:59:20;17.60;;;10.70;;
62056;SDS011;48016;50.284;18.860;2023-03-01T14:01:54;17.60;;;9.30;;
62056;SDS011;48016;50.284;18.860;2023-03-01T14:04:32;18.80;;;9.80;;
62056;SDS011;48016;50.284;18.860;2023-03-01T14:07:09;16.70;;;9.60;;
62056;SDS011;48016;50.284;18.860;2023-03-01T14:09:37;16.80;;;8.80;;
62056;SDS011;48016;50.284;18.860;2023-03-01T14:15:42;15.60;;;8.60;;
62056;SDS011;48016;50.284;18.860;2023-03-01T14:18:24;19.00;;;10.90;;
62056;SDS011;48016;50.284;18.860;2023-03-01T14:21:13;15.60;;;10.40;;
62056;SDS011;48016;50.284;18.860;2023-03-01T14:23:42;19.60;;;10.20;;
62056;SDS011;48016;50.284;18.860;2023-03-01T14:26:09;18.80;;;9.30;;
62056;SDS011;48016;50.284;18.860;2023-03-01T14:28:38;18.80;;;9.40;;
62056;SDS011;48016;50.284;18.860;2023-03-01T14:33:56;21.10;;;10.80;;
62056;SDS011;48016;50.284;18.860;2023-03-01T14:36:27;18.80;;;10.20;;
62056;SDS011;48016;50.284;18.860;2023-03-01T14:38:55;19.60;;;10.10;;
62056;SDS011;48016;50.284;18.860;2023-03-01T14:41:32;18.30;;;11.00;;
62056;SDS011;48016;50.284;18.860;2023-03-01T14:44:07;18.90;;;10.30;;
62056;SDS011;48016;50.284;18.860;2023-03-01T14:46:43;22.50;;;11.30;;
62056;SDS011;48016;50.284;18.860;2023-03-01T14:49:19;19.70;;;10.20;;
62056;SDS011;48016;50.284;18.860;2023-03-01T14:54:35;18.80;;;10.40;;
62056;SDS011;48016;50.284;18.860;2023-03-01T14:57:17;19.40;;;10.40;;
62056;SDS011;48016;50.284;18.860;2023-03-01T14:59:50;24.90;;;11.10;;
62056;SDS011;48016;50.284;18.860;2023-03-01T15:02:21;26.50;;;13.20;;
62056;SDS011;48016;50.284;18.860;2023-03-01T15:04:51;24.20;;;11.20;;
62056;SDS011;48016;50.284;18.860;2023-03-01T15:07:24;21.70;;;12.00;;
62056;SDS011;48016;50.284;18.860;2023-03-01T15:09:55;23.50;;;11.20;;
62056;SDS011;48016;50.284;18.860;2023-03-01T15:14:55;22.30;;;11.00;;
62056;SDS011;48016;50.284;18.860;2023-03-01T15:17:33;21.10;;;11.40;;
62056;SDS011;48016;50.284;18.860;2023-03-01T15:20:06;22.70;;;12.40;;
62056;SDS011;48016;50.284;18.860;2023-03-01T15:22:46;24.30;;;11.20;;
62056;SDS011;48016;50.284;18.860;2023-03-01T15:25:15;25.50;;;11.30;;
62056;SDS011;48016;50.284;18.860;2023-03-01T15:27:47;21.90;;;11.50;;
62056;SDS011;48016;50.284;18.860;2023-03-01T15:32:48;20.00;;;11.20;;
62056;SDS011;48016;50.284;18.860;2023-03-01T15:35:42;20.50;;;11.80;;
62056;SDS011;48016;50.284;18.860;2023-03-01T15:41:24;22.30;;;11.60;;
62056;SDS011;48016;50.284;18.860;2023-03-01T15:43:53;25.10;;;11.40;;
62056;SDS011;48016;50.284;18.860;2023-03-01T15:49:04;24.80;;;12.30;;
62056;SDS011;48016;50.284;18.860;2023-03-01T15:51:46;22.20;;;11.80;;
62056;SDS011;48016;50.284;18.860;2023-03-01T15:54:17;29.10;;;13.70;;
62056;SDS011;48016;50.284;18.860;2023-03-01T15:56:46;28.20;;;12.70;;
62056;SDS011;48016;50.284;18.860;2023-03-01T15:59:13;31.50;;;16.00;;
62056;SDS011;48016;50.284;18.860;2023-03-01T16:01:40;28.30;;;13.60;;
62056;SDS011;48016;50.284;18.860;2023-03-01T16:04:11;27.00;;;13.20;;
62056;SDS011;48016;50.284;18.860;2023-03-01T16:06:47;30.60;;;14.30;;
62056;SDS011;48016;50.284;18.860;2023-03-01T16:09:24;26.50;;;14.50;;
62056;SDS011;48016;50.284;18.860;2023-03-01T16:11:52;34.10;;;16.70;;
62056;SDS011;48016;50.284;18.860;2023-03-01T16:14:20;40.10;;;19.80;;
62056;SDS011;48016;50.284;18.860;2023-03-01T16:16:47;34.90;;;17.20;;
62056;SDS011;48016;50.284;18.860;2023-03-01T16:19:17;33.30;;;17.60;;
62056;SDS011;48016;50.284;18.860;2023-03-01T16:21:43;37.70;;;18.50;;
62056;SDS011;48016;50.284;18.860;2023-03-01T16:24:13;41.70;;;20.10;;
62056;SDS011;48016;50.284;18.860;2023-03-01T16:26:40;39.70;;;20.10;;
62056;SDS011;48016;50.284;18.860;2023-03-01T16:31:34;51.30;;;21.50;;
62056;SDS011;48016;50.284;18.860;2023-03-01T16:34:01;52.60;;;21.50;;
62056;SDS011;48016;50.284;18.860;2023-03-01T16:36:28;55.60;;;27.50;;
62056;SDS011;48016;50.284;18.860;2023-03-01T16:38:55;96.00;;;47.30;;
62056;SDS011;48016;50.284;18.860;2023-03-01T16:41:24;83.30;;;39.60;;
62056;SDS011;48016;50.284;18.860;2023-03-01T16:43:51;114.50;;;47.60;;
62056;SDS011;48016;50.284;18.860;2023-03-01T16:46:22;125.20;;;49.30;;
62056;SDS011;48016;50.284;18.860;2023-03-01T16:48:54;118.20;;;45.20;;
62056;SDS011;48016;50.284;18.860;2023-03-01T16:53:49;84.00;;;34.00;;
62056;SDS011;48016;50.284;18.860;2023-03-01T16:56:16;69.50;;;31.80;;
62056;SDS011;48016;50.284;18.860;2023-03-01T16:58:45;68.00;;;31.00;;
62056;SDS011;48016;50.284;18.860;2023-03-01T17:01:13;49.10;;;24.60;;
62056;SDS011;48016;50.284;18.860;2023-03-01T17:03:45;46.10;;;23.60;;
62056;SDS011;48016;50.284;18.860;2023-03-01T17:06:15;47.30;;;22.10;;